sensor_id;sensor_type;location;lat;lon;timestamp;P1;durP1;ratioP1;P2;durP2;ratioP2
75760;SDS011;64373;46.136;8.830;2023-07-20T00:01:15;7.38;;;3.92;;
75760;SDS011;64373;46.136;8.830;2023-07-20T00:03:41;5.47;;;3.70;;
75760;SDS011;64373;46.136;8.830;2023-07-20T00:06:06;6.10;;;3.55;;
75760;SDS011;64373;46.136;8.830;2023-07-20T00:08:32;5.07;;;3.63;;
75760;SDS011;64373;46.136;8.830;2023-07-20T00:10:58;5.28;;;3.30;;
75760;SDS011;64373;46.136;8.830;2023-07-20T00:13:23;4.45;;;3.42;;
75760;SDS011;64373;46.136;8.830;2023-07-20T00:15:49;3.97;;;3.08;;
75760;SDS011;64373;46.136;8.830;2023-07-20T00:18:14;3.95;;;3.17;;
75760;SDS011;64373;46.136;8.830;2023-07-20T00:20:40;3.72;;;3.03;;
75760;SDS011;64373;46.136;8.830;2023-07-20T00:23:05;3.40;;;2.83;;
75760;SDS011;64373;46.136;8.830;2023-07-20T00:25:31;4.68;;;3.35;;
75760;SDS011;64373;46.136;8.830;2023-07-20T00:27:57;5.13;;;3.25;;
75760;SDS011;64373;46.136;8.830;2023-07-20T00:30:22;4.38;;;2.38;;
75760;SDS011;64373;46.136;8.830;2023-07-20T00:32:48;3.47;;;2.92;;
75760;SDS011;64373;46.136;8.830;2023-07-20T00:35:14;4.35;;;3.30;;
75760;SDS011;64373;46.136;8.830;2023-07-20T00:37:39;4.78;;;3.50;;
75760;SDS011;64373;46.136;8.830;2023-07-20T00:40:05;4.57;;;3.60;;
75760;SDS011;64373;46.136;8.830;2023-07-20T00:42:34;6.57;;;4.05;;
75760;SDS011;64373;46.136;8.830;2023-07-20T00:45:00;6.30;;;3.40;;
75760;SDS011;64373;46.136;8.830;2023-07-20T00:47:26;4.15;;;3.17;;
75760;SDS011;64373;46.136;8.830;2023-07-20T00:49:52;5.63;;;3.55;;
75760;SDS011;64373;46.136;8.830;2023-07-20T00:52:17;6.35;;;3.42;;
75760;SDS011;64373;46.136;8.830;2023-07-20T00:54:44;6.85;;;3.30;;
75760;SDS011;64373;46.136;8.830;2023-07-20T00:57:10;4.13;;;3.33;;
75760;SDS011;64373;46.136;8.830;2023-07-20T00:59:39;4.97;;;3.10;;
75760;SDS011;64373;46.136;8.830;2023-07-20T01:02:05;4.13;;;3.13;;
75760;SDS011;64373;46.136;8.830;2023-07-20T01:04:30;4.07;;;3.20;;
75760;SDS011;64373;46.136;8.830;2023-07-20T01:06:58;4.90;;;2.90;;
75760;SDS011;64373;46.136;8.830;2023-07-20T01:12:46;3.67;;;2.75;;
75760;SDS011;64373;46.136;8.830;2023-07-20T01:15:13;5.75;;;3.40;;
75760;SDS011;64373;46.136;8.830;2023-07-20T01:17:38;4.40;;;3.10;;
75760;SDS011;64373;46.136;8.830;2023-07-20T01:20:05;4.97;;;3.20;;
75760;SDS011;64373;46.136;8.830;2023-07-20T01:25:06;6.43;;;3.78;;
75760;SDS011;64373;46.136;8.830;2023-07-20T01:27:58;5.65;;;3.50;;
75760;SDS011;64373;46.136;8.830;2023-07-20T01:36:05;4.47;;;3.00;;
75760;SDS011;64373;46.136;8.830;2023-07-20T01:38:32;3.78;;;2.78;;
75760;SDS011;64373;46.136;8.830;2023-07-20T01:40:57;3.38;;;2.38;;
75760;SDS011;64373;46.136;8.830;2023-07-20T01:43:23;5.07;;;3.08;;
75760;SDS011;64373;46.136;8.830;2023-07-20T01:45:49;5.78;;;2.97;;
75760;SDS011;64373;46.136;8.830;2023-07-20T01:48:14;3.78;;;2.65;;
75760;SDS011;64373;46.136;8.830;2023-07-20T01:50:40;3.85;;;2.80;;
75760;SDS011;64373;46.136;8.830;2023-07-20T01:53:05;4.53;;;3.40;;
75760;SDS011;64373;46.136;8.830;2023-07-20T01:55:31;5.28;;;3.03;;
75760;SDS011;64373;46.136;8.830;2023-07-20T01:57:57;3.60;;;2.83;;
75760;SDS011;64373;46.136;8.830;2023-07-20T02:00:25;4.65;;;2.72;;
75760;SDS011;64373;46.136;8.830;2023-07-20T02:02:50;3.88;;;2.85;;
75760;SDS011;64373;46.136;8.830;2023-07-20T02:05:16;3.58;;;2.28;;
75760;SDS011;64373;46.136;8.830;2023-07-20T02:07:42;4.63;;;2.63;;
75760;SDS011;64373;46.136;8.830;2023-07-20T02:10:08;3.65;;;2.78;;
75760;SDS011;64373;46.136;8.830;2023-07-20T02:12:34;4.38;;;2.22;;
75760;SDS011;64373;46.136;8.830;2023-07-20T02:15:00;2.90;;;2.30;;
75760;SDS011;64373;46.136;8.830;2023-07-20T02:17:26;5.10;;;2.80;;
75760;SDS011;64373;46.136;8.830;2023-07-20T02:19:52;4.70;;;3.00;;
75760;SDS011;64373;46.136;8.830;2023-07-20T02:22:18;3.78;;;3.10;;
75760;SDS011;64373;46.136;8.830;2023-07-20T02:24:44;4.00;;;2.97;;
75760;SDS011;64373;46.136;8.830;2023-07-20T02:27:09;5.78;;;3.08;;
75760;SDS011;64373;46.136;8.830;2023-07-20T02:29:35;5.22;;;3.33;;
75760;SDS011;64373;46.136;8.830;2023-07-20T02:32:01;4.80;;;3.20;;
75760;SDS011;64373;46.136;8.830;2023-07-20T02:34:27;4.53;;;2.95;;
75760;SDS011;64373;46.136;8.830;2023-07-20T02:36:53;6.32;;;3.33;;
75760;SDS011;64373;46.136;8.830;2023-07-20T02:39:21;5.78;;;3.42;;
75760;SDS011;64373;46.136;8.830;2023-07-20T02:41:47;5.43;;;2.90;;
75760;SDS011;64373;46.136;8.830;2023-07-20T02:44:13;4.85;;;3.45;;
75760;SDS011;64373;46.136;8.830;2023-07-20T02:46:39;6.38;;;3.17;;
75760;SDS011;64373;46.136;8.830;2023-07-20T02:49:05;4.30;;;3.15;;
75760;SDS011;64373;46.136;8.830;2023-07-20T02:51:30;5.45;;;3.63;;
75760;SDS011;64373;46.136;8.830;2023-07-20T02:53:56;4.72;;;3.03;;
75760;SDS011;64373;46.136;8.830;2023-07-20T02:56:21;3.70;;;2.60;;
75760;SDS011;64373;46.136;8.830;2023-07-20T02:58:48;5.80;;;3.40;;
75760;SDS011;64373;46.136;8.830;2023-07-20T03:01:13;6.45;;;3.58;;
75760;SDS011;64373;46.136;8.830;2023-07-20T03:03:40;4.45;;;3.15;;
75760;SDS011;64373;46.136;8.830;2023-07-20T03:06:11;5.88;;;3.40;;
75760;SDS011;64373;46.136;8.830;2023-07-20T03:08:41;5.72;;;3.20;;
75760;SDS011;64373;46.136;8.830;2023-07-20T03:11:10;4.80;;;3.03;;
75760;SDS011;64373;46.136;8.830;2023-07-20T03:13:36;4.82;;;2.75;;
75760;SDS011;64373;46.136;8.830;2023-07-20T03:16:01;5.72;;;3.28;;
75760;SDS011;64373;46.136;8.830;2023-07-20T03:18:27;5.25;;;3.60;;
75760;SDS011;64373;46.136;8.830;2023-07-20T03:20:52;4.15;;;2.90;;
75760;SDS011;64373;46.136;8.830;2023-07-20T03:23:18;2.88;;;2.40;;
75760;SDS011;64373;46.136;8.830;2023-07-20T03:25:43;3.80;;;2.72;;
75760;SDS011;64373;46.136;8.830;2023-07-20T03:28:09;3.83;;;3.10;;
75760;SDS011;64373;46.136;8.830;2023-07-20T03:30:34;4.63;;;3.28;;
75760;SDS011;64373;46.136;8.830;2023-07-20T03:33:00;4.25;;;2.45;;
75760;SDS011;64373;46.136;8.830;2023-07-20T03:35:26;3.90;;;2.60;;
75760;SDS011;64373;46.136;8.830;2023-07-20T03:37:51;4.57;;;3.10;;
75760;SDS011;64373;46.136;8.830;2023-07-20T03:40:17;4.05;;;2.35;;
75760;SDS011;64373;46.136;8.830;2023-07-20T03:42:43;3.75;;;2.53;;
75760;SDS011;64373;46.136;8.830;2023-07-20T03:45:08;3.95;;;2.58;;
75760;SDS011;64373;46.136;8.830;2023-07-20T03:47:34;3.65;;;2.90;;
75760;SDS011;64373;46.136;8.830;2023-07-20T03:50:00;4.43;;;3.25;;
75760;SDS011;64373;46.136;8.830;2023-07-20T03:52:25;4.32;;;3.03;;
75760;SDS011;64373;46.136;8.830;2023-07-20T03:54:51;4.72;;;3.10;;
75760;SDS011;64373;46.136;8.830;2023-07-20T03:57:17;4.63;;;2.90;;
75760;SDS011;64373;46.136;8.830;2023-07-20T03:59:45;3.42;;;2.45;;
75760;SDS011;64373;46.136;8.830;2023-07-20T04:02:11;4.43;;;2.63;;
75760;SDS011;64373;46.136;8.830;2023-07-20T04:04:37;3.45;;;2.60;;
75760;SDS011;64373;46.136;8.830;2023-07-20T04:07:04;3.90;;;2.38;;
75760;SDS011;64373;46.136;8.830;2023-07-20T04:09:31;2.95;;;2.35;;
75760;SDS011;64373;46.136;8.830;2023-07-20T04:11:57;3.63;;;2.85;;
75760;SDS011;64373;46.136;8.830;2023-07-20T04:14:23;3.70;;;2.50;;
75760;SDS011;64373;46.136;8.830;2023-07-20T04:16:49;4.40;;;2.53;;
75760;SDS011;64373;46.136;8.830;2023-07-20T04:19:16;4.85;;;2.85;;
75760;SDS011;64373;46.136;8.830;2023-07-20T04:21:43;4.07;;;2.60;;
75760;SDS011;64373;46.136;8.830;2023-07-20T04:24:08;4.18;;;2.70;;
75760;SDS011;64373;46.136;8.830;2023-07-20T04:26:34;3.08;;;2.25;;
75760;SDS011;64373;46.136;8.830;2023-07-20T04:29:00;3.22;;;2.35;;
75760;SDS011;64373;46.136;8.830;2023-07-20T04:31:26;4.63;;;2.78;;
75760;SDS011;64373;46.136;8.830;2023-07-20T04:33:51;4.13;;;2.78;;
75760;SDS011;64373;46.136;8.830;2023-07-20T04:36:17;4.18;;;2.75;;
75760;SDS011;64373;46.136;8.830;2023-07-20T04:38:44;4.45;;;2.90;;
75760;SDS011;64373;46.136;8.830;2023-07-20T04:41:11;4.63;;;2.95;;
75760;SDS011;64373;46.136;8.830;2023-07-20T04:43:40;4.50;;;2.88;;
75760;SDS011;64373;46.136;8.830;2023-07-20T04:46:08;3.55;;;2.42;;
75760;SDS011;64373;46.136;8.830;2023-07-20T04:48:34;2.90;;;2.50;;
75760;SDS011;64373;46.136;8.830;2023-07-20T04:51:00;4.82;;;2.67;;
75760;SDS011;64373;46.136;8.830;2023-07-20T04:53:25;3.42;;;2.75;;
75760;SDS011;64373;46.136;8.830;2023-07-20T04:55:51;4.70;;;2.90;;
75760;SDS011;64373;46.136;8.830;2023-07-20T04:58:20;2.97;;;2.60;;
75760;SDS011;64373;46.136;8.830;2023-07-20T05:00:51;3.10;;;2.22;;
75760;SDS011;64373;46.136;8.830;2023-07-20T05:05:42;3.17;;;2.38;;
75760;SDS011;64373;46.136;8.830;2023-07-20T05:08:08;3.42;;;2.28;;
75760;SDS011;64373;46.136;8.830;2023-07-20T05:10:34;3.85;;;2.33;;
75760;SDS011;64373;46.136;8.830;2023-07-20T05:13:00;3.65;;;2.30;;
75760;SDS011;64373;46.136;8.830;2023-07-20T05:15:25;3.05;;;2.40;;
75760;SDS011;64373;46.136;8.830;2023-07-20T05:17:51;2.50;;;2.08;;
75760;SDS011;64373;46.136;8.830;2023-07-20T05:20:16;4.20;;;2.80;;
75760;SDS011;64373;46.136;8.830;2023-07-20T05:22:42;3.25;;;2.30;;
75760;SDS011;64373;46.136;8.830;2023-07-20T05:25:09;5.80;;;2.92;;
75760;SDS011;64373;46.136;8.830;2023-07-20T05:27:38;3.88;;;2.60;;
75760;SDS011;64373;46.136;8.830;2023-07-20T05:30:06;3.05;;;2.33;;
75760;SDS011;64373;46.136;8.830;2023-07-20T05:32:32;3.83;;;2.40;;
75760;SDS011;64373;46.136;8.830;2023-07-20T05:34:58;3.22;;;2.17;;
75760;SDS011;64373;46.136;8.830;2023-07-20T05:37:24;3.25;;;2.40;;
75760;SDS011;64373;46.136;8.830;2023-07-20T05:39:50;5.15;;;2.90;;
75760;SDS011;64373;46.136;8.830;2023-07-20T05:42:16;5.60;;;2.90;;
75760;SDS011;64373;46.136;8.830;2023-07-20T05:44:41;4.25;;;3.15;;
75760;SDS011;64373;46.136;8.830;2023-07-20T05:47:07;3.80;;;2.60;;
75760;SDS011;64373;46.136;8.830;2023-07-20T05:49:34;4.53;;;2.60;;
75760;SDS011;64373;46.136;8.830;2023-07-20T05:52:00;3.65;;;2.50;;
75760;SDS011;64373;46.136;8.830;2023-07-20T05:54:26;3.35;;;2.50;;
75760;SDS011;64373;46.136;8.830;2023-07-20T05:56:52;4.88;;;2.97;;
75760;SDS011;64373;46.136;8.830;2023-07-20T05:59:18;2.90;;;2.25;;
75760;SDS011;64373;46.136;8.830;2023-07-20T06:01:45;3.85;;;2.20;;
75760;SDS011;64373;46.136;8.830;2023-07-20T06:04:10;4.60;;;3.10;;
75760;SDS011;64373;46.136;8.830;2023-07-20T06:06:36;4.25;;;2.92;;
75760;SDS011;64373;46.136;8.830;2023-07-20T06:09:01;4.80;;;3.33;;
75760;SDS011;64373;46.136;8.830;2023-07-20T06:11:32;4.45;;;2.97;;
75760;SDS011;64373;46.136;8.830;2023-07-20T06:13:58;6.70;;;3.28;;
75760;SDS011;64373;46.136;8.830;2023-07-20T06:16:24;3.70;;;2.75;;
75760;SDS011;64373;46.136;8.830;2023-07-20T06:18:49;4.35;;;2.90;;
75760;SDS011;64373;46.136;8.830;2023-07-20T06:21:15;5.18;;;3.05;;
75760;SDS011;64373;46.136;8.830;2023-07-20T06:23:40;3.38;;;2.60;;
75760;SDS011;64373;46.136;8.830;2023-07-20T06:26:06;4.55;;;2.53;;
75760;SDS011;64373;46.136;8.830;2023-07-20T06:28:32;4.47;;;2.70;;
75760;SDS011;64373;46.136;8.830;2023-07-20T06:31:01;2.95;;;2.33;;
75760;SDS011;64373;46.136;8.830;2023-07-20T06:33:28;3.22;;;2.67;;
75760;SDS011;64373;46.136;8.830;2023-07-20T06:35:54;8.48;;;3.80;;
75760;SDS011;64373;46.136;8.830;2023-07-20T06:38:22;4.15;;;3.20;;
75760;SDS011;64373;46.136;8.830;2023-07-20T06:40:51;5.43;;;3.33;;
75760;SDS011;64373;46.136;8.830;2023-07-20T06:43:17;5.05;;;3.33;;
75760;SDS011;64373;46.136;8.830;2023-07-20T06:45:43;4.88;;;3.15;;
75760;SDS011;64373;46.136;8.830;2023-07-20T06:48:08;4.25;;;3.00;;
75760;SDS011;64373;46.136;8.830;2023-07-20T06:50:34;3.67;;;2.65;;
75760;SDS011;64373;46.136;8.830;2023-07-20T06:53:00;4.55;;;2.97;;
75760;SDS011;64373;46.136;8.830;2023-07-20T06:55:28;5.93;;;3.17;;
75760;SDS011;64373;46.136;8.830;2023-07-20T06:57:53;3.97;;;3.15;;
75760;SDS011;64373;46.136;8.830;2023-07-20T07:00:19;4.10;;;3.08;;
75760;SDS011;64373;46.136;8.830;2023-07-20T07:02:45;3.95;;;2.85;;
75760;SDS011;64373;46.136;8.830;2023-07-20T07:05:10;3.53;;;2.63;;
75760;SDS011;64373;46.136;8.830;2023-07-20T07:07:38;3.97;;;2.83;;
75760;SDS011;64373;46.136;8.830;2023-07-20T07:10:04;3.10;;;2.70;;
75760;SDS011;64373;46.136;8.830;2023-07-20T07:12:30;4.13;;;2.75;;
75760;SDS011;64373;46.136;8.830;2023-07-20T07:14:56;5.20;;;3.05;;
75760;SDS011;64373;46.136;8.830;2023-07-20T07:17:21;4.38;;;3.10;;
75760;SDS011;64373;46.136;8.830;2023-07-20T07:19:47;4.53;;;2.92;;
75760;SDS011;64373;46.136;8.830;2023-07-20T07:22:13;4.20;;;2.70;;
75760;SDS011;64373;46.136;8.830;2023-07-20T07:24:40;4.90;;;3.13;;
75760;SDS011;64373;46.136;8.830;2023-07-20T07:27:12;7.22;;;3.35;;
75760;SDS011;64373;46.136;8.830;2023-07-20T07:29:45;4.22;;;3.22;;
75760;SDS011;64373;46.136;8.830;2023-07-20T07:32:21;5.00;;;3.00;;
75760;SDS011;64373;46.136;8.830;2023-07-20T07:34:54;3.75;;;2.75;;
75760;SDS011;64373;46.136;8.830;2023-07-20T07:37:24;4.03;;;2.72;;
75760;SDS011;64373;46.136;8.830;2023-07-20T07:39:57;4.40;;;3.20;;
75760;SDS011;64373;46.136;8.830;2023-07-20T07:42:28;6.13;;;3.53;;
75760;SDS011;64373;46.136;8.830;2023-07-20T07:44:54;5.70;;;3.55;;
75760;SDS011;64373;46.136;8.830;2023-07-20T07:47:20;5.68;;;3.22;;
75760;SDS011;64373;46.136;8.830;2023-07-20T07:49:45;10.23;;;3.97;;
75760;SDS011;64373;46.136;8.830;2023-07-20T07:52:11;4.95;;;3.50;;
75760;SDS011;64373;46.136;8.830;2023-07-20T07:54:37;4.68;;;3.30;;
75760;SDS011;64373;46.136;8.830;2023-07-20T07:57:02;5.07;;;3.58;;
75760;SDS011;64373;46.136;8.830;2023-07-20T07:59:28;5.35;;;3.80;;
75760;SDS011;64373;46.136;8.830;2023-07-20T08:01:55;5.72;;;3.70;;
75760;SDS011;64373;46.136;8.830;2023-07-20T08:04:20;4.30;;;3.05;;
75760;SDS011;64373;46.136;8.830;2023-07-20T08:06:46;4.43;;;3.55;;
75760;SDS011;64373;46.136;8.830;2023-07-20T08:09:11;4.82;;;3.10;;
75760;SDS011;64373;46.136;8.830;2023-07-20T08:11:38;4.80;;;3.78;;
75760;SDS011;64373;46.136;8.830;2023-07-20T08:14:04;5.00;;;3.53;;
75760;SDS011;64373;46.136;8.830;2023-07-20T08:16:30;6.18;;;3.60;;
75760;SDS011;64373;46.136;8.830;2023-07-20T08:18:56;5.07;;;3.40;;
75760;SDS011;64373;46.136;8.830;2023-07-20T08:21:21;4.40;;;3.40;;
75760;SDS011;64373;46.136;8.830;2023-07-20T08:23:47;4.70;;;4.00;;
75760;SDS011;64373;46.136;8.830;2023-07-20T08:26:12;4.68;;;3.67;;
75760;SDS011;64373;46.136;8.830;2023-07-20T08:28:38;4.80;;;3.78;;
75760;SDS011;64373;46.136;8.830;2023-07-20T08:31:05;5.00;;;3.30;;
75760;SDS011;64373;46.136;8.830;2023-07-20T08:33:32;4.90;;;3.50;;
75760;SDS011;64373;46.136;8.830;2023-07-20T08:35:59;5.50;;;3.88;;
75760;SDS011;64373;46.136;8.830;2023-07-20T08:38:26;4.53;;;3.40;;
75760;SDS011;64373;46.136;8.830;2023-07-20T08:40:52;5.35;;;3.80;;
75760;SDS011;64373;46.136;8.830;2023-07-20T08:43:21;4.80;;;3.78;;
75760;SDS011;64373;46.136;8.830;2023-07-20T08:45:49;4.47;;;3.60;;
75760;SDS011;64373;46.136;8.830;2023-07-20T08:48:15;5.07;;;3.42;;
75760;SDS011;64373;46.136;8.830;2023-07-20T08:50:41;5.47;;;3.78;;
75760;SDS011;64373;46.136;8.830;2023-07-20T08:53:06;4.22;;;3.60;;
75760;SDS011;64373;46.136;8.830;2023-07-20T08:55:32;5.50;;;3.75;;
75760;SDS011;64373;46.136;8.830;2023-07-20T08:57:58;5.18;;;4.20;;
75760;SDS011;64373;46.136;8.830;2023-07-20T09:00:25;4.47;;;3.60;;
75760;SDS011;64373;46.136;8.830;2023-07-20T09:02:55;5.10;;;3.90;;
75760;SDS011;64373;46.136;8.830;2023-07-20T09:05:22;5.93;;;3.88;;
75760;SDS011;64373;46.136;8.830;2023-07-20T09:07:49;5.40;;;3.70;;
75760;SDS011;64373;46.136;8.830;2023-07-20T09:10:15;4.65;;;3.70;;
75760;SDS011;64373;46.136;8.830;2023-07-20T09:12:42;4.47;;;3.60;;
75760;SDS011;64373;46.136;8.830;2023-07-20T09:15:09;6.65;;;3.78;;
75760;SDS011;64373;46.136;8.830;2023-07-20T09:17:35;4.18;;;3.58;;
75760;SDS011;64373;46.136;8.830;2023-07-20T09:20:06;5.28;;;4.18;;
75760;SDS011;64373;46.136;8.830;2023-07-20T09:22:35;6.93;;;4.00;;
75760;SDS011;64373;46.136;8.830;2023-07-20T09:25:03;4.50;;;3.88;;
75760;SDS011;64373;46.136;8.830;2023-07-20T09:27:35;6.50;;;3.78;;
75760;SDS011;64373;46.136;8.830;2023-07-20T09:30:02;5.38;;;3.60;;
75760;SDS011;64373;46.136;8.830;2023-07-20T09:32:28;5.13;;;3.78;;
75760;SDS011;64373;46.136;8.830;2023-07-20T09:34:54;4.32;;;3.20;;
75760;SDS011;64373;46.136;8.830;2023-07-20T09:37:20;4.75;;;3.50;;
75760;SDS011;64373;46.136;8.830;2023-07-20T09:39:47;4.05;;;3.13;;
75760;SDS011;64373;46.136;8.830;2023-07-20T09:42:14;4.55;;;3.53;;
75760;SDS011;64373;46.136;8.830;2023-07-20T09:44:40;4.95;;;3.63;;
75760;SDS011;64373;46.136;8.830;2023-07-20T09:47:06;4.97;;;4.07;;
75760;SDS011;64373;46.136;8.830;2023-07-20T09:49:32;5.28;;;4.00;;
75760;SDS011;64373;46.136;8.830;2023-07-20T09:51:57;4.50;;;3.85;;
75760;SDS011;64373;46.136;8.830;2023-07-20T09:54:25;5.13;;;3.63;;
75760;SDS011;64373;46.136;8.830;2023-07-20T09:56:53;5.38;;;4.15;;
75760;SDS011;64373;46.136;8.830;2023-07-20T09:59:19;5.95;;;4.13;;
75760;SDS011;64373;46.136;8.830;2023-07-20T10:01:44;8.35;;;3.33;;
75760;SDS011;64373;46.136;8.830;2023-07-20T10:04:11;5.18;;;3.40;;
75760;SDS011;64373;46.136;8.830;2023-07-20T10:06:39;4.00;;;3.60;;
75760;SDS011;64373;46.136;8.830;2023-07-20T10:09:07;4.38;;;3.60;;
75760;SDS011;64373;46.136;8.830;2023-07-20T10:11:35;4.57;;;3.55;;
75760;SDS011;64373;46.136;8.830;2023-07-20T10:14:03;6.18;;;3.50;;
75760;SDS011;64373;46.136;8.830;2023-07-20T10:16:36;5.15;;;3.20;;
75760;SDS011;64373;46.136;8.830;2023-07-20T10:19:05;5.30;;;3.72;;
75760;SDS011;64373;46.136;8.830;2023-07-20T10:21:37;4.55;;;3.20;;
75760;SDS011;64373;46.136;8.830;2023-07-20T10:24:06;5.60;;;4.00;;
75760;SDS011;64373;46.136;8.830;2023-07-20T10:26:32;5.80;;;3.72;;
75760;SDS011;64373;46.136;8.830;2023-07-20T10:28:58;4.60;;;3.20;;
75760;SDS011;64373;46.136;8.830;2023-07-20T10:31:24;4.07;;;3.30;;
75760;SDS011;64373;46.136;8.830;2023-07-20T10:33:50;4.22;;;3.53;;
75760;SDS011;64373;46.136;8.830;2023-07-20T10:36:20;4.45;;;3.72;;
75760;SDS011;64373;46.136;8.830;2023-07-20T10:38:54;4.30;;;3.17;;
75760;SDS011;64373;46.136;8.830;2023-07-20T10:41:21;3.97;;;3.20;;
75760;SDS011;64373;46.136;8.830;2023-07-20T10:43:50;4.75;;;3.38;;
75760;SDS011;64373;46.136;8.830;2023-07-20T10:46:41;4.38;;;3.55;;
75760;SDS011;64373;46.136;8.830;2023-07-20T10:49:09;4.63;;;3.40;;
75760;SDS011;64373;46.136;8.830;2023-07-20T10:54:07;4.20;;;3.17;;
75760;SDS011;64373;46.136;8.830;2023-07-20T10:56:33;4.03;;;3.13;;
75760;SDS011;64373;46.136;8.830;2023-07-20T10:58:59;3.90;;;3.33;;
75760;SDS011;64373;46.136;8.830;2023-07-20T11:01:35;3.58;;;2.97;;
75760;SDS011;64373;46.136;8.830;2023-07-20T11:04:02;5.53;;;3.45;;
75760;SDS011;64373;46.136;8.830;2023-07-20T11:06:33;4.25;;;3.00;;
75760;SDS011;64373;46.136;8.830;2023-07-20T11:09:04;3.28;;;2.80;;
75760;SDS011;64373;46.136;8.830;2023-07-20T11:11:32;4.13;;;3.30;;
75760;SDS011;64373;46.136;8.830;2023-07-20T11:14:02;4.32;;;3.00;;
75760;SDS011;64373;46.136;8.830;2023-07-20T11:16:32;3.70;;;3.10;;
75760;SDS011;64373;46.136;8.830;2023-07-20T11:19:04;4.35;;;3.10;;
75760;SDS011;64373;46.136;8.830;2023-07-20T11:21:37;3.25;;;2.90;;
75760;SDS011;64373;46.136;8.830;2023-07-20T11:24:04;3.47;;;2.97;;
75760;SDS011;64373;46.136;8.830;2023-07-20T11:26:39;3.42;;;3.13;;
75760;SDS011;64373;46.136;8.830;2023-07-20T11:29:08;5.32;;;3.15;;
75760;SDS011;64373;46.136;8.830;2023-07-20T11:31:40;4.03;;;3.25;;
75760;SDS011;64373;46.136;8.830;2023-07-20T11:34:13;4.95;;;3.47;;
75760;SDS011;64373;46.136;8.830;2023-07-20T11:36:43;3.67;;;3.08;;
75760;SDS011;64373;46.136;8.830;2023-07-20T11:39:11;5.85;;;3.45;;
75760;SDS011;64373;46.136;8.830;2023-07-20T11:41:38;4.55;;;3.05;;
75760;SDS011;64373;46.136;8.830;2023-07-20T11:44:05;4.47;;;3.30;;
75760;SDS011;64373;46.136;8.830;2023-07-20T11:46:32;4.05;;;3.25;;
75760;SDS011;64373;46.136;8.830;2023-07-20T11:48:58;3.50;;;3.20;;
75760;SDS011;64373;46.136;8.830;2023-07-20T11:51:26;4.07;;;3.50;;
75760;SDS011;64373;46.136;8.830;2023-07-20T11:53:52;3.60;;;3.25;;
75760;SDS011;64373;46.136;8.830;2023-07-20T11:56:17;3.60;;;3.08;;
75760;SDS011;64373;46.136;8.830;2023-07-20T11:58:43;3.78;;;3.28;;
75760;SDS011;64373;46.136;8.830;2023-07-20T12:01:11;3.33;;;3.03;;
75760;SDS011;64373;46.136;8.830;2023-07-20T12:03:43;4.93;;;3.55;;
75760;SDS011;64373;46.136;8.830;2023-07-20T12:06:09;3.97;;;2.92;;
75760;SDS011;64373;46.136;8.830;2023-07-20T12:08:39;4.63;;;3.67;;
75760;SDS011;64373;46.136;8.830;2023-07-20T12:11:06;3.88;;;3.30;;
75760;SDS011;64373;46.136;8.830;2023-07-20T12:13:38;4.32;;;3.38;;
75760;SDS011;64373;46.136;8.830;2023-07-20T12:16:09;5.93;;;3.63;;
75760;SDS011;64373;46.136;8.830;2023-07-20T12:18:36;4.28;;;3.35;;
75760;SDS011;64373;46.136;8.830;2023-07-20T12:21:03;3.63;;;3.05;;
75760;SDS011;64373;46.136;8.830;2023-07-20T12:23:37;7.82;;;3.88;;
75760;SDS011;64373;46.136;8.830;2023-07-20T12:26:06;4.25;;;3.15;;
75760;SDS011;64373;46.136;8.830;2023-07-20T12:28:36;3.90;;;2.83;;
75760;SDS011;64373;46.136;8.830;2023-07-20T12:31:05;4.03;;;2.70;;
75760;SDS011;64373;46.136;8.830;2023-07-20T12:33:31;3.67;;;2.95;;
75760;SDS011;64373;46.136;8.830;2023-07-20T12:35:57;3.88;;;3.30;;
75760;SDS011;64373;46.136;8.830;2023-07-20T12:38:24;3.35;;;2.80;;
75760;SDS011;64373;46.136;8.830;2023-07-20T12:40:50;3.67;;;3.08;;
75760;SDS011;64373;46.136;8.830;2023-07-20T12:43:16;3.08;;;2.50;;
75760;SDS011;64373;46.136;8.830;2023-07-20T12:45:42;3.85;;;2.60;;
75760;SDS011;64373;46.136;8.830;2023-07-20T12:48:08;3.15;;;2.22;;
75760;SDS011;64373;46.136;8.830;2023-07-20T12:50:34;3.53;;;2.53;;
75760;SDS011;64373;46.136;8.830;2023-07-20T12:52:59;3.63;;;2.70;;
75760;SDS011;64373;46.136;8.830;2023-07-20T12:55:25;4.53;;;3.65;;
75760;SDS011;64373;46.136;8.830;2023-07-20T12:57:50;5.35;;;3.80;;
75760;SDS011;64373;46.136;8.830;2023-07-20T13:00:16;3.97;;;3.30;;
75760;SDS011;64373;46.136;8.830;2023-07-20T13:02:42;4.00;;;3.15;;
75760;SDS011;64373;46.136;8.830;2023-07-20T13:05:08;5.57;;;3.33;;
75760;SDS011;64373;46.136;8.830;2023-07-20T13:07:35;4.35;;;3.30;;
75760;SDS011;64373;46.136;8.830;2023-07-20T13:10:03;4.10;;;3.20;;
75760;SDS011;64373;46.136;8.830;2023-07-20T13:12:30;3.50;;;3.20;;
75760;SDS011;64373;46.136;8.830;2023-07-20T13:14:56;4.82;;;3.17;;
75760;SDS011;64373;46.136;8.830;2023-07-20T13:17:25;5.57;;;3.35;;
75760;SDS011;64373;46.136;8.830;2023-07-20T13:19:57;4.05;;;3.45;;
75760;SDS011;64373;46.136;8.830;2023-07-20T13:22:22;3.10;;;2.80;;
75760;SDS011;64373;46.136;8.830;2023-07-20T13:24:48;3.72;;;2.70;;
75760;SDS011;64373;46.136;8.830;2023-07-20T13:27:15;3.40;;;2.90;;
75760;SDS011;64373;46.136;8.830;2023-07-20T13:29:41;4.45;;;3.25;;
75760;SDS011;64373;46.136;8.830;2023-07-20T13:32:07;5.07;;;3.58;;
75760;SDS011;64373;46.136;8.830;2023-07-20T13:34:34;5.65;;;3.50;;
75760;SDS011;64373;46.136;8.830;2023-07-20T13:37:00;3.75;;;3.13;;
75760;SDS011;64373;46.136;8.830;2023-07-20T13:39:25;4.70;;;3.47;;
75760;SDS011;64373;46.136;8.830;2023-07-20T13:41:53;3.92;;;3.30;;
75760;SDS011;64373;46.136;8.830;2023-07-20T13:44:19;3.78;;;3.38;;
75760;SDS011;64373;46.136;8.830;2023-07-20T13:46:48;4.22;;;3.50;;
75760;SDS011;64373;46.136;8.830;2023-07-20T13:49:14;3.40;;;3.05;;
75760;SDS011;64373;46.136;8.830;2023-07-20T13:51:43;4.07;;;2.85;;
75760;SDS011;64373;46.136;8.830;2023-07-20T13:54:09;3.88;;;2.90;;
75760;SDS011;64373;46.136;8.830;2023-07-20T13:56:35;4.00;;;3.38;;
75760;SDS011;64373;46.136;8.830;2023-07-20T13:59:00;3.33;;;2.90;;
75760;SDS011;64373;46.136;8.830;2023-07-20T14:01:26;3.33;;;2.70;;
75760;SDS011;64373;46.136;8.830;2023-07-20T14:03:53;3.90;;;3.20;;
75760;SDS011;64373;46.136;8.830;2023-07-20T14:06:19;3.53;;;3.08;;
75760;SDS011;64373;46.136;8.830;2023-07-20T14:08:44;3.13;;;2.75;;
75760;SDS011;64373;46.136;8.830;2023-07-20T14:11:14;3.50;;;3.20;;
75760;SDS011;64373;46.136;8.830;2023-07-20T14:13:39;3.67;;;2.97;;
75760;SDS011;64373;46.136;8.830;2023-07-20T14:16:05;6.80;;;3.28;;
75760;SDS011;64373;46.136;8.830;2023-07-20T14:18:31;4.15;;;3.28;;
75760;SDS011;64373;46.136;8.830;2023-07-20T14:20:56;3.50;;;2.92;;
75760;SDS011;64373;46.136;8.830;2023-07-20T14:23:22;3.47;;;2.58;;
75760;SDS011;64373;46.136;8.830;2023-07-20T14:25:48;4.30;;;3.08;;
75760;SDS011;64373;46.136;8.830;2023-07-20T14:28:14;5.65;;;3.20;;
75760;SDS011;64373;46.136;8.830;2023-07-20T14:30:39;4.10;;;3.70;;
75760;SDS011;64373;46.136;8.830;2023-07-20T14:33:05;3.83;;;3.17;;
75760;SDS011;64373;46.136;8.830;2023-07-20T14:35:31;3.50;;;3.00;;
75760;SDS011;64373;46.136;8.830;2023-07-20T14:37:57;4.25;;;3.20;;
75760;SDS011;64373;46.136;8.830;2023-07-20T14:40:23;3.30;;;3.00;;
75760;SDS011;64373;46.136;8.830;2023-07-20T14:42:48;3.80;;;3.00;;
75760;SDS011;64373;46.136;8.830;2023-07-20T14:45:14;4.32;;;3.05;;
75760;SDS011;64373;46.136;8.830;2023-07-20T14:47:40;6.28;;;3.20;;
75760;SDS011;64373;46.136;8.830;2023-07-20T14:50:05;4.40;;;3.10;;
75760;SDS011;64373;46.136;8.830;2023-07-20T14:52:31;3.78;;;3.20;;
75760;SDS011;64373;46.136;8.830;2023-07-20T14:54:57;3.67;;;3.00;;
75760;SDS011;64373;46.136;8.830;2023-07-20T14:57:22;3.83;;;3.38;;
75760;SDS011;64373;46.136;8.830;2023-07-20T14:59:51;3.15;;;2.85;;
75760;SDS011;64373;46.136;8.830;2023-07-20T15:02:18;5.90;;;3.38;;